ADDS TAF Board (Experimental) INFO Settings
IDs: Format: Expanded Condensed

KEWR - Newark Intl, NJ, US

Issued at 0532 UTC 01 Aug 2015
Updated at: 0544 UTC 01 Aug 2015
Time0451Z 01/06Z 01/07Z 01/08Z 01/09Z 01/10Z 01/11Z 01/12Z 01/13Z 01/14Z 01/15Z 01/16Z 01/17Z 01/18Z
Type OBS PRVL PRVL PRVL PRVL PRVL PRVL PRVL PRVL PRVL PRVL PRVL PRVL PRVL
VIS 10 >6 >6 >6 >6 >6 >6 >6 >6 >6 >6 >6 >6 >6
CIG -- -- -- -- -- -- -- -- -- -- -- -- -- --
Cover CLR SKC SKC SKC SKC SKC SKC SKC SKC SKC SCT SCT SCT SCT
FltCat VFR VFR VFR VFR VFR VFR VFR VFR VFR VFR VFR VFR VFR VFR
WX -- -- -- -- -- -- -- -- -- -- -- -- -- --
WDir 220 240 240 240 240 240 240 240 240 240 260 260 260 260
WSpd 6 5 5 5 5 5 5 5 5 5 10 10 10 12
WGst -- -- -- -- -- -- -- -- -- -- -- -- -- 21
R04/22
XWnd 1 3 3 3 3 3 3 3 3 3 8 8 8 10
XGst -- -- -- -- -- -- -- -- -- -- -- -- -- 17
HWnd -6 -4 -4 -4 -4 -4 -4 -4 -4 -4 -6 -6 -6 -7
HGst -- -- -- -- -- -- -- -- -- -- -- -- -- -12
R11/29
XWnd -5 -3 -3 -3 -3 -3 -3 -3 -3 -3 -3 -3 -3 -3
XGst -- -- -- -- -- -- -- -- -- -- -- -- -- -5
HWnd -3 -4 -4 -4 -4 -4 -4 -4 -4 -4 -10 -10 -10 -12
HGst -- -- -- -- -- -- -- -- -- -- -- -- -- -20

NOTE: TEMPO conditions in [brackets]. Keep in mind TEMPO conditions might be better (lower impact) than prevailing conditions.

Raw TAF
KEWR 010532Z 0106/0212 24005KT P6SM SKC
  FM011500 26010KT P6SM SCT150
  FM011800 26012G21KT P6SM SCT060
  FM012300 29011KT P6SM FEW060
  FM020300 30006KT P6SM SKC


Raw METAR
KEWR 010451Z 22006KT 10SM CLR 26/15 A2983 RMK AO2 SLP100 T02560150 403390228
KEWR 010351Z 21005KT 10SM CLR 25/15 A2983 RMK AO2 SLP102 T02500150
KEWR 010251Z 24008KT 10SM CLR 28/14 A2983 RMK AO2 SLP101 T02780144 51013

METAR Board
Radar Display
Forecast Discussion

TAF Board Legend

Potential Impact
Threat None Slight Moderate High
Visibility (sm) ≥5.1 5.1>X≥3 3>X≥1 <1
Ceiling (100 ft) ≥30.1 30.1>X≥10 10>X≥5 <5
Wind Speed (kt) <10 10≤X<20 20≤X<30 ≥30
Wind Gust (kt) <15 15≤X<25 25≤X<35 ≥35
Weather No Wx Reported VCTS,-TS,-FZRA,SN TS,FZRA +TS,+FZRA,+SN